createdAt,value
2022-11-25T00:00:00.292Z,98763.60
2022-11-25T00:02:36.396Z,98766.20
2022-11-25T00:05:13.702Z,98770.00
2022-11-25T00:07:49.556Z,98771.00
2022-11-25T00:10:25.954Z,98773.60
2022-11-25T00:13:01.945Z,98769.00
2022-11-25T00:15:37.969Z,98771.60
2022-11-25T00:18:14.029Z,98777.60
2022-11-25T00:20:49.878Z,98777.60
2022-11-25T00:23:29.188Z,98778.60
2022-11-25T00:26:16.520Z,98778.00
2022-11-25T00:28:53.629Z,98783.20
2022-11-25T00:31:32.609Z,98784.40
2022-11-25T00:34:12.253Z,98786.40
2022-11-25T00:36:48.235Z,98793.40
2022-11-25T00:39:25.791Z,98792.20
2022-11-25T00:42:21.537Z,98791.80
2022-11-25T00:44:57.466Z,98792.40
2022-11-25T00:47:33.357Z,98789.80
2022-11-25T00:50:12.585Z,98792.60
2022-11-25T00:52:48.536Z,98791.20
2022-11-25T00:55:25.382Z,98787.40
2022-11-25T00:58:01.542Z,98797.40
2022-11-25T01:00:37.559Z,98800.40
2022-11-25T01:03:15.190Z,98800.60
2022-11-25T01:05:51.033Z,98802.40
2022-11-25T01:08:26.939Z,98798.00
2022-11-25T01:11:08.079Z,98803.40
2022-11-25T01:13:44.259Z,98802.20
2022-11-25T01:16:23.632Z,98805.40
2022-11-25T01:19:00.819Z,98810.80
2022-11-25T01:21:38.286Z,98807.20
2022-11-25T01:24:16.981Z,98807.40
2022-11-25T01:26:54.881Z,98802.80
2022-11-25T01:29:31.743Z,98807.20
2022-11-25T01:32:08.595Z,98811.00
2022-11-25T01:34:44.536Z,98809.80
2022-11-25T01:37:20.372Z,98803.00
2022-11-25T01:39:56.369Z,98807.80
2022-11-25T01:42:35.524Z,98807.40
2022-11-25T01:45:42.937Z,98807.60
2022-11-25T01:48:27.264Z,98804.20
2022-11-25T01:51:03.875Z,98802.40
2022-11-25T01:53:40.128Z,98805.20
2022-11-25T01:56:16.661Z,98803.00
2022-11-25T01:58:54.335Z,98798.40
2022-11-25T02:01:30.799Z,98799.00
2022-11-25T02:04:11.008Z,98799.80
2022-11-25T02:06:58.807Z,98801.60
2022-11-25T02:09:36.104Z,98793.00
2022-11-25T02:12:13.336Z,98796.60
2022-11-25T02:14:49.982Z,98795.80
2022-11-25T02:17:26.246Z,98796.40
2022-11-25T02:20:09.658Z,98788.60
2022-11-25T02:23:01.903Z,98790.80
2022-11-25T02:25:41.023Z,98787.80
2022-11-25T02:28:24.708Z,98790.00
2022-11-25T02:31:01.197Z,98794.40
2022-11-25T02:33:37.500Z,98790.40
2022-11-25T02:36:21.423Z,98789.00
2022-11-25T02:39:01.838Z,98788.20
2022-11-25T02:41:44.884Z,98787.40
2022-11-25T02:44:21.065Z,98792.00
2022-11-25T02:46:56.876Z,98789.00
2022-11-25T02:49:33.720Z,98785.60
2022-11-25T02:52:09.935Z,98780.40
2022-11-25T02:54:45.938Z,98780.60
2022-11-25T02:57:21.766Z,98785.00
2022-11-25T02:59:57.646Z,98784.80
2022-11-25T03:02:34.299Z,98789.40
2022-11-25T03:05:12.101Z,98788.40
2022-11-25T03:07:48.003Z,98791.60
2022-11-25T03:10:25.749Z,98796.00
2022-11-25T03:13:02.875Z,98796.00
2022-11-25T03:15:39.263Z,98793.40
2022-11-25T03:18:15.492Z,98793.20
2022-11-25T03:20:54.598Z,98793.20
2022-11-25T03:23:32.557Z,98792.80
2022-11-25T03:26:12.029Z,98797.40
2022-11-25T03:28:47.945Z,98798.40
2022-11-25T03:31:24.896Z,98804.40
2022-11-25T03:34:01.216Z,98812.20
2022-11-25T03:36:37.060Z,98809.00
2022-11-25T03:39:13.141Z,98814.60
2022-11-25T03:41:49.067Z,98817.80
2022-11-25T03:44:26.387Z,98818.60
2022-11-25T03:47:02.253Z,98824.80
2022-11-25T03:49:38.520Z,98828.20
2022-11-25T03:52:15.649Z,98823.40
2022-11-25T03:54:51.738Z,98822.60
2022-11-25T03:57:30.055Z,98820.80
2022-11-25T04:00:09.467Z,98817.40
2022-11-25T04:02:59.053Z,98815.00
2022-11-25T04:05:35.120Z,98816.80
2022-11-25T04:08:14.107Z,98819.20
2022-11-25T04:10:51.625Z,98817.60
2022-11-25T04:13:30.869Z,98821.40
2022-11-25T04:16:07.137Z,98817.80
2022-11-25T04:18:43.092Z,98824.20
2022-11-25T04:21:19.243Z,98824.80
2022-11-25T04:23:55.078Z,98826.40
2022-11-25T04:26:31.675Z,98829.20
2022-11-25T04:29:08.177Z,98833.40
2022-11-25T04:31:44.911Z,98831.60
2022-11-25T04:34:21.230Z,98833.20
2022-11-25T04:36:58.103Z,98830.80
2022-11-25T04:39:34.559Z,98837.40
2022-11-25T04:42:32.900Z,98840.40
2022-11-25T04:45:22.868Z,98840.00
2022-11-25T04:48:00.425Z,98843.00
2022-11-25T04:50:36.796Z,98845.40
2022-11-25T04:53:17.803Z,98849.60
2022-11-25T04:55:54.070Z,98849.80
2022-11-25T04:58:49.681Z,98853.00
2022-11-25T05:01:25.855Z,98854.60
2022-11-25T05:04:05.376Z,98853.80
2022-11-25T05:06:42.564Z,98853.60
2022-11-25T05:09:18.608Z,98859.80
2022-11-25T05:11:57.226Z,98865.20
2022-11-25T05:14:35.039Z,98875.40
2022-11-25T05:17:16.837Z,98872.20
2022-11-25T05:19:53.708Z,98874.60
2022-11-25T05:22:33.515Z,98879.00
2022-11-25T05:25:11.999Z,98879.40
2022-11-25T05:27:53.499Z,98878.60
2022-11-25T05:30:29.769Z,98880.00
2022-11-25T05:33:05.776Z,98878.00
2022-11-25T05:35:41.721Z,98879.60
2022-11-25T05:38:18.087Z,98883.20
2022-11-25T05:40:55.390Z,98881.80
2022-11-25T05:43:31.264Z,98885.00
2022-11-25T05:46:11.392Z,98885.40
2022-11-25T05:48:55.991Z,98889.00
2022-11-25T05:51:33.371Z,98890.60
2022-11-25T05:54:10.805Z,98896.80
2022-11-25T05:56:47.958Z,98904.40
2022-11-25T05:59:49.546Z,98907.40
2022-11-25T06:03:08.440Z,98910.00
2022-11-25T06:05:45.508Z,98909.80
2022-11-25T06:08:21.930Z,98904.60
2022-11-25T06:10:58.383Z,98916.60
2022-11-25T06:13:34.761Z,98917.60
2022-11-25T06:16:17.683Z,98921.00
2022-11-25T06:18:54.673Z,98921.60
2022-11-25T06:21:30.656Z,98925.60
2022-11-25T06:24:06.935Z,98929.80
2022-11-25T06:26:43.132Z,98929.00
2022-11-25T06:29:19.860Z,98929.80
2022-11-25T06:31:57.715Z,98935.40
2022-11-25T06:35:26.614Z,98934.60
2022-11-25T06:38:06.113Z,98939.80
2022-11-25T06:40:42.376Z,98937.00
2022-11-25T06:43:18.138Z,98939.60
2022-11-25T06:45:53.979Z,98943.00
2022-11-25T06:48:30.312Z,98941.60
2022-11-25T06:51:09.722Z,98943.60
2022-11-25T06:53:46.908Z,98941.80
2022-11-25T06:56:25.580Z,98943.40
2022-11-25T06:59:01.430Z,98943.80
2022-11-25T07:01:38.448Z,98937.60
2022-11-25T07:04:14.447Z,98939.60
2022-11-25T07:06:51.665Z,98940.00
2022-11-25T07:09:27.806Z,98946.40
2022-11-25T07:12:03.650Z,98951.20
2022-11-25T07:14:39.525Z,98947.80
2022-11-25T07:17:15.604Z,98947.00
2022-11-25T07:19:51.570Z,98947.00
2022-11-25T07:22:27.520Z,98955.60
2022-11-25T07:25:04.090Z,98958.40
2022-11-25T07:27:40.083Z,98962.40
2022-11-25T07:31:21.226Z,98964.20
2022-11-25T07:33:14.255Z,98965.60
2022-11-25T07:35:50.268Z,98960.20
2022-11-25T07:38:26.320Z,98959.40
2022-11-25T07:41:09.441Z,98966.20
2022-11-25T07:43:48.602Z,98969.80
2022-11-25T07:46:29.084Z,98975.40
2022-11-25T07:49:08.747Z,98975.00
2022-11-25T07:51:49.260Z,98976.20
2022-11-25T07:54:26.685Z,98976.80
2022-11-25T07:57:02.739Z,98981.20
2022-11-25T07:59:41.361Z,98983.20
2022-11-25T08:02:17.400Z,98985.40
2022-11-25T08:04:53.440Z,98988.80
2022-11-25T08:07:36.161Z,98991.00
2022-11-25T08:10:14.817Z,98991.80
2022-11-25T08:12:51.170Z,98991.60
2022-11-25T08:15:27.223Z,98997.00
2022-11-25T08:18:03.241Z,99000.20
2022-11-25T08:20:39.275Z,99004.00
2022-11-25T08:23:15.507Z,99004.60
2022-11-25T08:25:51.495Z,99008.40
2022-11-25T08:28:27.789Z,99006.80
2022-11-25T08:31:12.853Z,99006.40
2022-11-25T08:33:49.875Z,99010.40
2022-11-25T08:36:27.278Z,99008.60
2022-11-25T08:39:29.091Z,99014.20
2022-11-25T08:42:05.497Z,99018.60
2022-11-25T08:44:41.651Z,99023.40
2022-11-25T08:47:17.774Z,99020.40
2022-11-25T08:49:56.728Z,99020.40
2022-11-25T08:52:32.863Z,99022.00
2022-11-25T08:55:10.677Z,99022.20
2022-11-25T08:57:46.844Z,99020.80
2022-11-25T09:00:25.336Z,99026.80
2022-11-25T09:03:04.261Z,99025.20
2022-11-25T09:05:44.858Z,99026.80
2022-11-25T09:08:20.963Z,99027.20
2022-11-25T09:10:57.135Z,99032.60
2022-11-25T09:13:33.658Z,99032.60
2022-11-25T09:16:11.367Z,99035.20
2022-11-25T09:18:52.402Z,99034.20
2022-11-25T09:21:31.530Z,99037.80
2022-11-25T09:24:08.101Z,99034.20
2022-11-25T09:26:45.216Z,99036.80
2022-11-25T09:29:22.228Z,99040.20
2022-11-25T09:31:58.300Z,99041.20
2022-11-25T09:34:34.494Z,99039.20
2022-11-25T09:37:12.298Z,99037.20
2022-11-25T09:39:48.248Z,99039.80
2022-11-25T09:43:02.377Z,99039.80
2022-11-25T09:46:10.505Z,99043.60
2022-11-25T09:49:16.353Z,99039.40
2022-11-25T09:52:13.591Z,99038.20
2022-11-25T09:54:58.387Z,99033.20
2022-11-25T09:57:59.583Z,99037.20
2022-11-25T10:00:44.747Z,99042.80
2022-11-25T10:03:35.784Z,99042.20
2022-11-25T10:06:23.748Z,99047.00
2022-11-25T10:09:06.033Z,99045.00
2022-11-25T10:11:54.558Z,99041.80
2022-11-25T10:14:48.381Z,99040.60
2022-11-25T10:17:39.302Z,99042.60
2022-11-25T10:20:24.728Z,99039.80
2022-11-25T10:23:09.789Z,99045.80
2022-11-25T10:25:53.706Z,99048.80
2022-11-25T10:28:36.579Z,99044.40
2022-11-25T10:31:22.245Z,99044.60
2022-11-25T10:34:01.907Z,99044.00
2022-11-25T10:36:43.111Z,99043.80
2022-11-25T10:39:24.685Z,99045.20
2022-11-25T10:42:08.378Z,99046.00
2022-11-25T10:44:45.928Z,99043.60
2022-11-25T10:47:57.598Z,99049.40
2022-11-25T10:50:48.407Z,99053.60
2022-11-25T10:53:30.242Z,99051.60
2022-11-25T10:56:18.840Z,99051.80
2022-11-25T10:58:57.252Z,99057.00
2022-11-25T11:01:35.270Z,99053.60
2022-11-25T11:04:19.096Z,99050.00
2022-11-25T11:06:55.841Z,99053.20
2022-11-25T11:09:41.977Z,99049.80
2022-11-25T11:12:26.703Z,99048.40
2022-11-25T11:15:25.884Z,99052.20
2022-11-25T11:18:24.300Z,99054.60
2022-11-25T11:21:02.765Z,99056.60
2022-11-25T11:23:53.503Z,99055.60
2022-11-25T11:26:35.230Z,99054.20
2022-11-25T11:29:21.236Z,99056.40
2022-11-25T11:32:04.062Z,99056.20
2022-11-25T11:35:04.662Z,99052.20
2022-11-25T11:37:47.416Z,99056.80
2022-11-25T11:40:39.921Z,99059.00
2022-11-25T11:44:07.978Z,99059.00
2022-11-25T11:47:06.668Z,99059.80
2022-11-25T11:50:24.516Z,99060.40
2022-11-25T11:53:18.915Z,99062.00
2022-11-25T11:59:48.814Z,99065.20
2022-11-25T12:02:53.367Z,99067.20
2022-11-25T12:05:35.558Z,99062.80
2022-11-25T12:08:18.223Z,99066.20
2022-11-25T12:11:03.525Z,99071.00
2022-11-25T12:13:59.365Z,99068.20
2022-11-25T12:16:44.896Z,99066.00
2022-11-25T12:19:34.468Z,99069.00
2022-11-25T12:22:20.302Z,99069.80
2022-11-25T12:25:07.407Z,99071.00
2022-11-25T12:27:49.045Z,99073.80
2022-11-25T12:30:30.637Z,99076.80
2022-11-25T12:33:21.395Z,99078.60
2022-11-25T12:36:11.495Z,99081.00
2022-11-25T12:38:56.030Z,99080.00
2022-11-25T12:41:44.213Z,99082.40
2022-11-25T12:44:26.973Z,99082.00
2022-11-25T12:47:03.303Z,99085.20
2022-11-25T12:49:46.520Z,99082.20
2022-11-25T12:52:55.059Z,99083.40
2022-11-25T12:55:34.040Z,99082.60
2022-11-25T12:58:50.998Z,99085.40
2022-11-25T13:02:01.800Z,99084.60
2022-11-25T13:05:41.053Z,99083.80
2022-11-25T13:08:51.695Z,99087.20
2022-11-25T13:12:06.829Z,99089.40
2022-11-25T13:15:24.497Z,99081.20
2022-11-25T13:18:10.699Z,99080.40
2022-11-25T13:20:53.613Z,99080.20
2022-11-25T13:23:49.076Z,99083.20
2022-11-25T13:26:54.935Z,99086.40
2022-11-25T13:30:02.295Z,99086.20
2022-11-25T13:32:46.089Z,99088.40
2022-11-25T13:35:57.359Z,99091.20
2022-11-25T13:39:16.036Z,99089.60
2022-11-25T13:42:06.624Z,99089.00
2022-11-25T13:44:56.032Z,99090.40
2022-11-25T13:47:42.671Z,99090.80
2022-11-25T13:50:48.386Z,99090.20
2022-11-25T13:53:34.623Z,99095.40
2022-11-25T13:56:35.676Z,99095.60
2022-11-25T13:59:49.751Z,99100.60
2022-11-25T14:02:50.035Z,99101.60
2022-11-25T14:06:08.759Z,99102.20
2022-11-25T14:09:00.422Z,99107.00
2022-11-25T14:12:10.783Z,99106.60
2022-11-25T14:15:07.534Z,99108.40
2022-11-25T14:19:03.615Z,99107.80
2022-11-25T14:22:14.006Z,99108.60
2022-11-25T14:24:55.502Z,99110.00
2022-11-25T14:27:37.256Z,99113.60
2022-11-25T14:30:18.208Z,99118.20
2022-11-25T14:33:03.376Z,99116.80
2022-11-25T14:35:49.289Z,99120.80
2022-11-25T14:38:36.296Z,99120.20
2022-11-25T14:41:21.185Z,99119.20
2022-11-25T14:44:05.914Z,99122.40
2022-11-25T14:46:56.237Z,99124.60
2022-11-25T14:52:37.697Z,99126.60
2022-11-25T14:55:15.588Z,99127.00
2022-11-25T14:57:53.327Z,99125.40
2022-11-25T15:00:30.278Z,99129.20
2022-11-25T15:03:08.150Z,99128.20
2022-11-25T15:05:44.595Z,99131.20
2022-11-25T15:08:22.236Z,99132.00
2022-11-25T15:11:03.390Z,99135.20
2022-11-25T15:13:44.338Z,99134.60
2022-11-25T15:16:26.212Z,99135.20
2022-11-25T15:19:02.479Z,99135.40
2022-11-25T15:22:14.474Z,99139.80
2022-11-25T15:24:53.314Z,99140.20
2022-11-25T15:27:35.507Z,99143.00
2022-11-25T15:30:29.395Z,99146.00
2022-11-25T15:33:05.892Z,99147.20
2022-11-25T15:35:42.037Z,99143.80
2022-11-25T15:38:42.665Z,99145.80
2022-11-25T15:41:36.008Z,99144.80
2022-11-25T15:44:23.456Z,99144.80
2022-11-25T15:47:06.510Z,99144.20
2022-11-25T15:49:42.668Z,99146.60
2022-11-25T15:52:24.402Z,99145.40
2022-11-25T15:55:07.192Z,99148.20
2022-11-25T15:57:43.163Z,99145.20
2022-11-25T16:00:26.132Z,99141.60
2022-11-25T16:03:04.321Z,99138.40
2022-11-25T16:05:55.764Z,99139.00
2022-11-25T16:08:42.690Z,99139.00
2022-11-25T16:11:20.599Z,99139.80
2022-11-25T16:14:17.742Z,99142.60
2022-11-25T16:16:55.530Z,99145.60
2022-11-25T16:19:40.217Z,99145.20
2022-11-25T16:22:21.398Z,99147.20
2022-11-25T16:25:02.393Z,99147.00
2022-11-25T16:27:41.808Z,99148.60
2022-11-25T16:30:25.635Z,99146.80
2022-11-25T16:33:01.969Z,99149.00
2022-11-25T16:35:41.470Z,99155.20
2022-11-25T16:38:17.854Z,99152.80
2022-11-25T16:40:55.610Z,99155.60
2022-11-25T16:43:32.784Z,99153.80
2022-11-25T16:46:12.300Z,99153.40
2022-11-25T16:48:49.084Z,99154.20
2022-11-25T16:51:27.049Z,99163.00
2022-11-25T16:54:03.223Z,99164.20
2022-11-25T16:56:43.901Z,99160.40
2022-11-25T16:59:29.160Z,99158.00
2022-11-25T17:02:14.229Z,99157.20
2022-11-25T17:04:50.904Z,99153.80
2022-11-25T17:07:34.688Z,99158.20
2022-11-25T17:10:14.370Z,99157.00
2022-11-25T17:12:51.765Z,99160.00
2022-11-25T17:15:36.610Z,99164.00
2022-11-25T17:18:18.604Z,99167.00
2022-11-25T17:20:53.161Z,99169.40
2022-11-25T17:23:30.518Z,99167.60
2022-11-25T17:26:07.250Z,99169.60
2022-11-25T17:28:43.214Z,99172.40
2022-11-25T17:31:19.171Z,99179.20
2022-11-25T17:33:55.524Z,99181.40
2022-11-25T17:36:31.510Z,99176.80
2022-11-25T17:39:07.813Z,99180.80
2022-11-25T17:41:49.027Z,99179.80
2022-11-25T17:44:30.659Z,99185.20
2022-11-25T17:47:13.522Z,99184.00
2022-11-25T17:49:49.723Z,99182.80
2022-11-25T17:52:26.041Z,99190.20
2022-11-25T17:55:02.336Z,99191.80
2022-11-25T17:57:38.852Z,99188.20
2022-11-25T18:00:22.830Z,99189.60
2022-11-25T18:02:58.909Z,99189.00
2022-11-25T18:05:35.208Z,99194.20
2022-11-25T18:08:11.401Z,99195.60
2022-11-25T18:10:50.055Z,99197.40
2022-11-25T18:13:26.379Z,99194.00
2022-11-25T18:16:02.429Z,99192.40
2022-11-25T18:18:38.606Z,99191.80
2022-11-25T18:21:15.982Z,99197.60
2022-11-25T18:23:52.372Z,99199.40
2022-11-25T18:26:28.590Z,99199.80
2022-11-25T18:29:08.068Z,99200.80
2022-11-25T18:31:45.969Z,99202.20
2022-11-25T18:34:22.719Z,99205.40
2022-11-25T18:36:58.998Z,99208.80
2022-11-25T18:39:35.049Z,99209.80
2022-11-25T18:42:20.714Z,99214.60
2022-11-25T18:44:57.459Z,99221.40
2022-11-25T18:47:33.460Z,99223.80
2022-11-25T18:50:20.554Z,99225.40
2022-11-25T18:52:56.996Z,99227.80
2022-11-25T18:55:33.112Z,99228.40
2022-11-25T18:58:18.577Z,99228.60
2022-11-25T19:01:05.865Z,99226.40
2022-11-25T19:03:43.156Z,99225.40
2022-11-25T19:06:20.459Z,99225.20
2022-11-25T19:08:56.825Z,99216.60
2022-11-25T19:11:39.898Z,99216.40
2022-11-25T19:14:29.200Z,99210.60
2022-11-25T19:17:19.423Z,99207.40
2022-11-25T19:20:00.478Z,99213.20
2022-11-25T19:22:39.079Z,99220.40
2022-11-25T19:25:16.718Z,99233.40
2022-11-25T19:28:03.754Z,99230.00
2022-11-25T19:30:41.079Z,99235.20
2022-11-25T19:33:28.862Z,99236.40
2022-11-25T19:36:05.169Z,99249.00
2022-11-25T19:38:41.733Z,99248.60
2022-11-25T19:41:18.924Z,99252.20
2022-11-25T19:43:55.184Z,99250.20
2022-11-25T19:46:52.612Z,99253.80
2022-11-25T19:49:32.893Z,99256.80
2022-11-25T19:52:17.336Z,99267.00
2022-11-25T19:54:56.257Z,99265.20
2022-11-25T19:57:32.165Z,99264.60
2022-11-25T20:00:11.214Z,99268.00
2022-11-25T20:02:50.189Z,99267.80
2022-11-25T20:05:35.230Z,99270.20
2022-11-25T20:08:23.835Z,99270.60
2022-11-25T20:11:00.955Z,99274.80
2022-11-25T20:13:36.851Z,99275.20
2022-11-25T20:16:22.046Z,99279.80
2022-11-25T20:18:58.994Z,99275.80
2022-11-25T20:21:40.877Z,99277.60
2022-11-25T20:24:22.819Z,99280.60
2022-11-25T20:26:59.419Z,99278.00
2022-11-25T20:29:35.684Z,99279.00
2022-11-25T20:32:27.931Z,99279.60
2022-11-25T20:35:08.825Z,99277.60
2022-11-25T20:38:00.469Z,99280.40
2022-11-25T20:40:45.046Z,99285.60
2022-11-25T20:43:30.731Z,99286.60
2022-11-25T20:46:16.956Z,99291.20
2022-11-25T20:48:57.555Z,99294.00
2022-11-25T20:51:33.917Z,99300.80
2022-11-25T20:54:14.351Z,99308.40
2022-11-25T20:56:50.465Z,99299.60
2022-11-25T20:59:28.878Z,99305.60
2022-11-25T21:02:05.959Z,99302.00
2022-11-25T21:04:43.382Z,99304.60
2022-11-25T21:07:20.134Z,99298.40
2022-11-25T21:09:56.672Z,99306.60
2022-11-25T21:12:32.859Z,99307.20
2022-11-25T21:15:19.767Z,99310.20
2022-11-25T21:17:57.711Z,99308.20
2022-11-25T21:20:34.094Z,99313.20
2022-11-25T21:23:19.609Z,99314.80
2022-11-25T21:25:56.711Z,99316.20
2022-11-25T21:28:33.621Z,99317.00
2022-11-25T21:31:14.238Z,99321.00
2022-11-25T21:33:51.726Z,99321.80
2022-11-25T21:36:32.053Z,99318.60
2022-11-25T21:39:21.339Z,99315.80
2022-11-25T21:41:59.336Z,99320.40
2022-11-25T21:44:41.925Z,99317.40
2022-11-25T21:47:22.264Z,99321.80
2022-11-25T21:49:59.388Z,99326.80
2022-11-25T21:52:35.655Z,99323.60
2022-11-25T21:55:15.054Z,99324.00
2022-11-25T21:57:51.557Z,99330.80
2022-11-25T22:00:30.168Z,99330.00
2022-11-25T22:03:06.817Z,99331.00
2022-11-25T22:05:42.769Z,99329.20
2022-11-25T22:08:19.271Z,99331.20
2022-11-25T22:10:58.034Z,99330.80
2022-11-25T22:13:40.151Z,99333.20
2022-11-25T22:16:25.876Z,99338.00
2022-11-25T22:19:02.192Z,99344.00
2022-11-25T22:21:38.193Z,99347.60
2022-11-25T22:24:19.950Z,99347.80
2022-11-25T22:26:58.297Z,99349.80
2022-11-25T22:29:38.808Z,99354.00
2022-11-25T22:32:18.028Z,99352.20
2022-11-25T22:34:53.848Z,99353.20
2022-11-25T22:37:30.773Z,99352.60
2022-11-25T22:40:08.508Z,99356.20
2022-11-25T22:42:49.771Z,99357.80
2022-11-25T22:45:33.910Z,99360.00
2022-11-25T22:48:15.932Z,99361.20
2022-11-25T22:50:52.253Z,99360.60
2022-11-25T22:53:28.472Z,99359.00
2022-11-25T22:56:04.445Z,99356.80
2022-11-25T22:58:40.532Z,99354.80
2022-11-25T23:01:27.350Z,99352.00
2022-11-25T23:04:04.356Z,99357.40
2022-11-25T23:06:40.931Z,99360.60
2022-11-25T23:09:21.499Z,99363.40
2022-11-25T23:11:57.555Z,99366.20
2022-11-25T23:14:33.402Z,99364.60
2022-11-25T23:17:17.279Z,99372.60
2022-11-25T23:19:54.809Z,99369.00
2022-11-25T23:22:30.919Z,99365.40
2022-11-25T23:25:16.035Z,99366.80
2022-11-25T23:27:52.239Z,99368.80
2022-11-25T23:30:29.305Z,99367.80
2022-11-25T23:33:11.740Z,99370.20
2022-11-25T23:35:48.731Z,99371.00
2022-11-25T23:38:29.862Z,99368.20
2022-11-25T23:41:05.878Z,99365.00
2022-11-25T23:43:41.888Z,99364.20
2022-11-25T23:46:23.838Z,99367.40
2022-11-25T23:49:01.882Z,99368.00
2022-11-25T23:51:38.025Z,99363.00
2022-11-25T23:54:21.406Z,99366.40
2022-11-25T23:56:57.323Z,99365.80
2022-11-25T23:59:33.689Z,99367.60
